sensor_id;sensor_type;location;lat;lon;timestamp;P1;durP1;ratioP1;P2;durP2;ratioP2
36691;SDS011;22678;52.052;4.242;2022-11-14T00:02:15;16.77;;;9.40;;
36691;SDS011;22678;52.052;4.242;2022-11-14T00:04:44;18.17;;;9.80;;
36691;SDS011;22678;52.052;4.242;2022-11-14T00:07:10;14.87;;;9.30;;
36691;SDS011;22678;52.052;4.242;2022-11-14T00:09:35;14.73;;;9.10;;
36691;SDS011;22678;52.052;4.242;2022-11-14T00:12:02;16.73;;;10.00;;
36691;SDS011;22678;52.052;4.242;2022-11-14T00:14:28;14.87;;;10.00;;
36691;SDS011;22678;52.052;4.242;2022-11-14T00:16:53;19.20;;;10.30;;
36691;SDS011;22678;52.052;4.242;2022-11-14T00:19:19;14.27;;;8.67;;
36691;SDS011;22678;52.052;4.242;2022-11-14T00:21:44;14.57;;;9.43;;
36691;SDS011;22678;52.052;4.242;2022-11-14T00:24:09;13.80;;;9.10;;
36691;SDS011;22678;52.052;4.242;2022-11-14T00:26:34;14.97;;;9.80;;
36691;SDS011;22678;52.052;4.242;2022-11-14T00:29:00;15.63;;;9.70;;
36691;SDS011;22678;52.052;4.242;2022-11-14T00:31:25;16.50;;;8.97;;
36691;SDS011;22678;52.052;4.242;2022-11-14T00:33:50;16.33;;;8.40;;
36691;SDS011;22678;52.052;4.242;2022-11-14T00:36:15;12.13;;;8.43;;
36691;SDS011;22678;52.052;4.242;2022-11-14T00:38:41;14.67;;;8.23;;
36691;SDS011;22678;52.052;4.242;2022-11-14T00:41:06;14.20;;;9.70;;
36691;SDS011;22678;52.052;4.242;2022-11-14T00:43:31;15.23;;;7.67;;
36691;SDS011;22678;52.052;4.242;2022-11-14T00:45:57;12.37;;;8.83;;
36691;SDS011;22678;52.052;4.242;2022-11-14T00:48:22;12.67;;;8.97;;
36691;SDS011;22678;52.052;4.242;2022-11-14T00:50:47;15.33;;;10.03;;
36691;SDS011;22678;52.052;4.242;2022-11-14T00:53:13;16.23;;;9.47;;
36691;SDS011;22678;52.052;4.242;2022-11-14T00:55:38;11.73;;;8.13;;
36691;SDS011;22678;52.052;4.242;2022-11-14T00:58:03;14.30;;;8.53;;
36691;SDS011;22678;52.052;4.242;2022-11-14T01:00:29;13.10;;;8.97;;
36691;SDS011;22678;52.052;4.242;2022-11-14T01:02:54;11.63;;;8.53;;
36691;SDS011;22678;52.052;4.242;2022-11-14T01:05:22;14.33;;;8.57;;
36691;SDS011;22678;52.052;4.242;2022-11-14T01:07:48;15.20;;;9.67;;
36691;SDS011;22678;52.052;4.242;2022-11-14T01:10:14;15.17;;;8.20;;
36691;SDS011;22678;52.052;4.242;2022-11-14T01:12:40;12.70;;;8.60;;
36691;SDS011;22678;52.052;4.242;2022-11-14T01:15:06;14.57;;;8.47;;
36691;SDS011;22678;52.052;4.242;2022-11-14T01:17:31;11.50;;;8.17;;
36691;SDS011;22678;52.052;4.242;2022-11-14T01:19:57;12.40;;;8.40;;
36691;SDS011;22678;52.052;4.242;2022-11-14T01:22:22;13.37;;;8.80;;
36691;SDS011;22678;52.052;4.242;2022-11-14T01:24:47;12.83;;;8.73;;
36691;SDS011;22678;52.052;4.242;2022-11-14T01:27:13;12.60;;;8.87;;
36691;SDS011;22678;52.052;4.242;2022-11-14T01:29:38;14.03;;;8.63;;
36691;SDS011;22678;52.052;4.242;2022-11-14T01:32:03;11.67;;;7.60;;
36691;SDS011;22678;52.052;4.242;2022-11-14T01:34:28;17.27;;;9.00;;
36691;SDS011;22678;52.052;4.242;2022-11-14T01:36:54;15.00;;;9.17;;
36691;SDS011;22678;52.052;4.242;2022-11-14T01:39:19;14.17;;;8.60;;
36691;SDS011;22678;52.052;4.242;2022-11-14T01:41:44;15.10;;;8.10;;
36691;SDS011;22678;52.052;4.242;2022-11-14T01:44:11;13.37;;;8.13;;
36691;SDS011;22678;52.052;4.242;2022-11-14T01:46:39;13.30;;;7.77;;
36691;SDS011;22678;52.052;4.242;2022-11-14T01:49:16;13.90;;;7.97;;
36691;SDS011;22678;52.052;4.242;2022-11-14T01:51:50;12.40;;;7.17;;
36691;SDS011;22678;52.052;4.242;2022-11-14T01:54:29;12.60;;;8.13;;
36691;SDS011;22678;52.052;4.242;2022-11-14T01:57:02;12.30;;;8.17;;
36691;SDS011;22678;52.052;4.242;2022-11-14T01:59:32;9.13;;;7.33;;
36691;SDS011;22678;52.052;4.242;2022-11-14T02:02:05;11.83;;;7.57;;
36691;SDS011;22678;52.052;4.242;2022-11-14T02:04:35;17.10;;;11.30;;
36691;SDS011;22678;52.052;4.242;2022-11-14T02:07:03;11.97;;;8.63;;
36691;SDS011;22678;52.052;4.242;2022-11-14T02:09:33;12.87;;;8.53;;
36691;SDS011;22678;52.052;4.242;2022-11-14T02:12:00;11.77;;;7.90;;
36691;SDS011;22678;52.052;4.242;2022-11-14T02:14:30;12.80;;;7.57;;
36691;SDS011;22678;52.052;4.242;2022-11-14T02:16:57;13.37;;;8.30;;
36691;SDS011;22678;52.052;4.242;2022-11-14T02:19:22;12.27;;;9.37;;
36691;SDS011;22678;52.052;4.242;2022-11-14T02:21:48;13.07;;;7.47;;
36691;SDS011;22678;52.052;4.242;2022-11-14T02:24:13;12.10;;;8.50;;
36691;SDS011;22678;52.052;4.242;2022-11-14T02:26:39;14.50;;;8.53;;
36691;SDS011;22678;52.052;4.242;2022-11-14T02:29:06;13.70;;;8.57;;
36691;SDS011;22678;52.052;4.242;2022-11-14T02:31:33;16.30;;;8.90;;
36691;SDS011;22678;52.052;4.242;2022-11-14T02:33:59;15.73;;;9.20;;
36691;SDS011;22678;52.052;4.242;2022-11-14T02:36:24;12.53;;;7.57;;
36691;SDS011;22678;52.052;4.242;2022-11-14T02:38:50;14.00;;;8.10;;
36691;SDS011;22678;52.052;4.242;2022-11-14T02:41:15;14.53;;;8.23;;
36691;SDS011;22678;52.052;4.242;2022-11-14T02:43:40;14.93;;;9.50;;
36691;SDS011;22678;52.052;4.242;2022-11-14T02:46:05;14.53;;;9.33;;
36691;SDS011;22678;52.052;4.242;2022-11-14T02:48:31;15.93;;;8.07;;
36691;SDS011;22678;52.052;4.242;2022-11-14T02:50:56;10.97;;;7.23;;
36691;SDS011;22678;52.052;4.242;2022-11-14T02:53:21;15.13;;;9.40;;
36691;SDS011;22678;52.052;4.242;2022-11-14T02:55:47;16.57;;;9.00;;
36691;SDS011;22678;52.052;4.242;2022-11-14T02:58:12;17.67;;;9.47;;
36691;SDS011;22678;52.052;4.242;2022-11-14T03:00:37;12.03;;;8.40;;
36691;SDS011;22678;52.052;4.242;2022-11-14T03:03:02;14.33;;;9.20;;
36691;SDS011;22678;52.052;4.242;2022-11-14T03:05:28;12.27;;;7.97;;
36691;SDS011;22678;52.052;4.242;2022-11-14T03:07:53;14.77;;;8.80;;
36691;SDS011;22678;52.052;4.242;2022-11-14T03:10:20;14.90;;;9.10;;
36691;SDS011;22678;52.052;4.242;2022-11-14T03:12:46;13.03;;;7.20;;
36691;SDS011;22678;52.052;4.242;2022-11-14T03:15:11;15.57;;;10.53;;
36691;SDS011;22678;52.052;4.242;2022-11-14T03:17:36;15.30;;;9.00;;
36691;SDS011;22678;52.052;4.242;2022-11-14T03:20:02;11.57;;;8.57;;
36691;SDS011;22678;52.052;4.242;2022-11-14T03:22:28;14.50;;;10.13;;
36691;SDS011;22678;52.052;4.242;2022-11-14T03:24:53;14.53;;;8.40;;
36691;SDS011;22678;52.052;4.242;2022-11-14T03:27:18;15.13;;;7.17;;
36691;SDS011;22678;52.052;4.242;2022-11-14T03:29:45;14.93;;;9.50;;
36691;SDS011;22678;52.052;4.242;2022-11-14T03:32:11;11.27;;;6.47;;
36691;SDS011;22678;52.052;4.242;2022-11-14T03:34:37;12.60;;;8.57;;
36691;SDS011;22678;52.052;4.242;2022-11-14T03:37:02;13.37;;;7.77;;
36691;SDS011;22678;52.052;4.242;2022-11-14T03:39:27;14.63;;;9.17;;
36691;SDS011;22678;52.052;4.242;2022-11-14T03:41:52;18.20;;;9.57;;
36691;SDS011;22678;52.052;4.242;2022-11-14T03:44:18;15.17;;;8.90;;
36691;SDS011;22678;52.052;4.242;2022-11-14T03:46:43;14.77;;;9.63;;
36691;SDS011;22678;52.052;4.242;2022-11-14T03:49:08;15.47;;;9.57;;
36691;SDS011;22678;52.052;4.242;2022-11-14T03:51:34;18.73;;;9.40;;
36691;SDS011;22678;52.052;4.242;2022-11-14T03:53:59;14.73;;;8.70;;
36691;SDS011;22678;52.052;4.242;2022-11-14T03:56:25;16.73;;;10.33;;
36691;SDS011;22678;52.052;4.242;2022-11-14T03:58:50;18.67;;;9.33;;
36691;SDS011;22678;52.052;4.242;2022-11-14T04:01:16;16.23;;;10.57;;
36691;SDS011;22678;52.052;4.242;2022-11-14T04:03:41;17.83;;;9.70;;
36691;SDS011;22678;52.052;4.242;2022-11-14T04:06:06;14.23;;;8.53;;
36691;SDS011;22678;52.052;4.242;2022-11-14T04:08:32;17.00;;;10.87;;
36691;SDS011;22678;52.052;4.242;2022-11-14T04:10:57;17.67;;;10.17;;
36691;SDS011;22678;52.052;4.242;2022-11-14T04:13:22;17.57;;;9.77;;
36691;SDS011;22678;52.052;4.242;2022-11-14T04:15:57;14.50;;;10.50;;
36691;SDS011;22678;52.052;4.242;2022-11-14T04:18:23;15.27;;;9.30;;
36691;SDS011;22678;52.052;4.242;2022-11-14T04:20:49;14.73;;;9.03;;
36691;SDS011;22678;52.052;4.242;2022-11-14T04:23:14;19.23;;;9.80;;
36691;SDS011;22678;52.052;4.242;2022-11-14T04:25:39;16.10;;;9.90;;
36691;SDS011;22678;52.052;4.242;2022-11-14T04:28:07;17.50;;;11.20;;
36691;SDS011;22678;52.052;4.242;2022-11-14T04:30:32;17.37;;;11.07;;
36691;SDS011;22678;52.052;4.242;2022-11-14T04:32:58;19.57;;;10.40;;
36691;SDS011;22678;52.052;4.242;2022-11-14T04:35:23;19.63;;;11.07;;
36691;SDS011;22678;52.052;4.242;2022-11-14T04:37:48;17.70;;;11.10;;
36691;SDS011;22678;52.052;4.242;2022-11-14T04:40:13;17.87;;;9.43;;
36691;SDS011;22678;52.052;4.242;2022-11-14T04:42:39;17.40;;;9.47;;
36691;SDS011;22678;52.052;4.242;2022-11-14T04:45:04;21.83;;;10.93;;
36691;SDS011;22678;52.052;4.242;2022-11-14T04:47:30;20.67;;;10.03;;
36691;SDS011;22678;52.052;4.242;2022-11-14T04:49:55;23.50;;;12.80;;
36691;SDS011;22678;52.052;4.242;2022-11-14T04:52:21;20.47;;;9.40;;
36691;SDS011;22678;52.052;4.242;2022-11-14T04:54:46;18.67;;;11.83;;
36691;SDS011;22678;52.052;4.242;2022-11-14T04:57:11;20.43;;;10.27;;
36691;SDS011;22678;52.052;4.242;2022-11-14T04:59:37;17.53;;;10.13;;
36691;SDS011;22678;52.052;4.242;2022-11-14T05:02:02;29.13;;;14.50;;
36691;SDS011;22678;52.052;4.242;2022-11-14T05:04:27;20.93;;;11.53;;
36691;SDS011;22678;52.052;4.242;2022-11-14T05:06:52;19.47;;;11.60;;
36691;SDS011;22678;52.052;4.242;2022-11-14T05:09:18;19.40;;;10.63;;
36691;SDS011;22678;52.052;4.242;2022-11-14T05:11:43;20.33;;;11.17;;
36691;SDS011;22678;52.052;4.242;2022-11-14T05:14:08;20.00;;;11.20;;
36691;SDS011;22678;52.052;4.242;2022-11-14T05:16:33;22.57;;;10.83;;
36691;SDS011;22678;52.052;4.242;2022-11-14T05:18:59;24.57;;;12.40;;
36691;SDS011;22678;52.052;4.242;2022-11-14T05:21:24;23.70;;;10.37;;
36691;SDS011;22678;52.052;4.242;2022-11-14T05:23:49;16.93;;;10.73;;
36691;SDS011;22678;52.052;4.242;2022-11-14T05:26:15;18.40;;;11.23;;
36691;SDS011;22678;52.052;4.242;2022-11-14T05:28:41;20.67;;;13.33;;
36691;SDS011;22678;52.052;4.242;2022-11-14T05:31:07;20.03;;;10.80;;
36691;SDS011;22678;52.052;4.242;2022-11-14T05:33:34;19.73;;;12.27;;
36691;SDS011;22678;52.052;4.242;2022-11-14T05:36:03;24.67;;;12.47;;
36691;SDS011;22678;52.052;4.242;2022-11-14T05:38:30;22.07;;;12.20;;
36691;SDS011;22678;52.052;4.242;2022-11-14T05:40:55;19.57;;;11.70;;
36691;SDS011;22678;52.052;4.242;2022-11-14T05:43:21;21.63;;;12.73;;
36691;SDS011;22678;52.052;4.242;2022-11-14T05:45:46;22.93;;;11.77;;
36691;SDS011;22678;52.052;4.242;2022-11-14T05:48:11;27.40;;;12.50;;
36691;SDS011;22678;52.052;4.242;2022-11-14T05:50:37;22.87;;;11.87;;
36691;SDS011;22678;52.052;4.242;2022-11-14T05:53:02;23.10;;;12.27;;
36691;SDS011;22678;52.052;4.242;2022-11-14T05:55:27;22.53;;;11.20;;
36691;SDS011;22678;52.052;4.242;2022-11-14T05:57:56;23.57;;;12.57;;
36691;SDS011;22678;52.052;4.242;2022-11-14T06:00:22;19.00;;;11.33;;
36691;SDS011;22678;52.052;4.242;2022-11-14T06:02:50;22.43;;;12.40;;
36691;SDS011;22678;52.052;4.242;2022-11-14T06:05:16;22.73;;;12.80;;
36691;SDS011;22678;52.052;4.242;2022-11-14T06:07:42;26.43;;;13.23;;
36691;SDS011;22678;52.052;4.242;2022-11-14T06:10:07;30.33;;;14.13;;
36691;SDS011;22678;52.052;4.242;2022-11-14T06:12:32;33.97;;;14.73;;
36691;SDS011;22678;52.052;4.242;2022-11-14T06:14:58;28.40;;;13.07;;
36691;SDS011;22678;52.052;4.242;2022-11-14T06:17:23;24.17;;;12.93;;
36691;SDS011;22678;52.052;4.242;2022-11-14T06:19:48;22.87;;;14.10;;
36691;SDS011;22678;52.052;4.242;2022-11-14T06:22:14;24.53;;;12.53;;
36691;SDS011;22678;52.052;4.242;2022-11-14T06:24:39;25.67;;;12.43;;
36691;SDS011;22678;52.052;4.242;2022-11-14T06:27:04;28.60;;;15.10;;
36691;SDS011;22678;52.052;4.242;2022-11-14T06:29:30;23.23;;;14.73;;
36691;SDS011;22678;52.052;4.242;2022-11-14T06:31:55;27.03;;;14.93;;
36691;SDS011;22678;52.052;4.242;2022-11-14T06:34:20;29.93;;;13.40;;
36691;SDS011;22678;52.052;4.242;2022-11-14T06:36:46;23.57;;;12.70;;
36691;SDS011;22678;52.052;4.242;2022-11-14T06:39:11;25.20;;;12.83;;
36691;SDS011;22678;52.052;4.242;2022-11-14T06:41:36;25.50;;;13.77;;
36691;SDS011;22678;52.052;4.242;2022-11-14T06:44:01;20.03;;;11.70;;
36691;SDS011;22678;52.052;4.242;2022-11-14T06:46:27;29.00;;;13.93;;
36691;SDS011;22678;52.052;4.242;2022-11-14T06:48:52;26.50;;;14.50;;
36691;SDS011;22678;52.052;4.242;2022-11-14T06:51:17;25.10;;;14.40;;
36691;SDS011;22678;52.052;4.242;2022-11-14T06:53:43;21.60;;;12.67;;
36691;SDS011;22678;52.052;4.242;2022-11-14T06:56:10;25.93;;;14.07;;
36691;SDS011;22678;52.052;4.242;2022-11-14T06:58:41;27.03;;;12.90;;
36691;SDS011;22678;52.052;4.242;2022-11-14T07:01:12;29.57;;;14.30;;
36691;SDS011;22678;52.052;4.242;2022-11-14T07:03:39;26.47;;;12.80;;
36691;SDS011;22678;52.052;4.242;2022-11-14T07:06:05;25.03;;;13.93;;
36691;SDS011;22678;52.052;4.242;2022-11-14T07:08:32;25.20;;;13.97;;
36691;SDS011;22678;52.052;4.242;2022-11-14T07:11:03;26.77;;;14.30;;
36691;SDS011;22678;52.052;4.242;2022-11-14T07:13:34;32.73;;;13.67;;
36691;SDS011;22678;52.052;4.242;2022-11-14T07:16:00;35.67;;;15.63;;
36691;SDS011;22678;52.052;4.242;2022-11-14T07:18:28;25.00;;;11.50;;
36691;SDS011;22678;52.052;4.242;2022-11-14T07:21:00;23.47;;;14.27;;
36691;SDS011;22678;52.052;4.242;2022-11-14T07:23:28;23.47;;;12.37;;
36691;SDS011;22678;52.052;4.242;2022-11-14T07:25:54;26.47;;;14.57;;
36691;SDS011;22678;52.052;4.242;2022-11-14T07:28:20;24.57;;;12.50;;
36691;SDS011;22678;52.052;4.242;2022-11-14T07:30:45;23.97;;;12.27;;
36691;SDS011;22678;52.052;4.242;2022-11-14T07:33:10;29.43;;;13.87;;
36691;SDS011;22678;52.052;4.242;2022-11-14T07:35:38;25.93;;;13.20;;
36691;SDS011;22678;52.052;4.242;2022-11-14T07:38:04;25.70;;;12.07;;
36691;SDS011;22678;52.052;4.242;2022-11-14T07:40:29;22.10;;;11.87;;
36691;SDS011;22678;52.052;4.242;2022-11-14T07:42:58;30.07;;;13.83;;
36691;SDS011;22678;52.052;4.242;2022-11-14T07:45:25;23.57;;;13.00;;
36691;SDS011;22678;52.052;4.242;2022-11-14T07:47:55;25.33;;;13.00;;
36691;SDS011;22678;52.052;4.242;2022-11-14T07:50:21;25.13;;;13.30;;
36691;SDS011;22678;52.052;4.242;2022-11-14T07:52:53;20.73;;;11.87;;
36691;SDS011;22678;52.052;4.242;2022-11-14T07:55:20;25.10;;;12.97;;
36691;SDS011;22678;52.052;4.242;2022-11-14T07:57:46;22.60;;;13.43;;
36691;SDS011;22678;52.052;4.242;2022-11-14T08:00:12;27.27;;;15.23;;
36691;SDS011;22678;52.052;4.242;2022-11-14T08:02:38;29.07;;;15.43;;
36691;SDS011;22678;52.052;4.242;2022-11-14T08:05:04;25.93;;;13.20;;
36691;SDS011;22678;52.052;4.242;2022-11-14T08:07:30;32.27;;;13.17;;
36691;SDS011;22678;52.052;4.242;2022-11-14T08:09:55;26.37;;;12.50;;
36691;SDS011;22678;52.052;4.242;2022-11-14T08:12:20;23.27;;;13.30;;
36691;SDS011;22678;52.052;4.242;2022-11-14T08:14:46;28.87;;;14.50;;
36691;SDS011;22678;52.052;4.242;2022-11-14T08:17:11;22.20;;;14.03;;
36691;SDS011;22678;52.052;4.242;2022-11-14T08:19:36;26.63;;;13.17;;
36691;SDS011;22678;52.052;4.242;2022-11-14T08:22:01;24.33;;;13.10;;
36691;SDS011;22678;52.052;4.242;2022-11-14T08:24:27;25.80;;;13.47;;
36691;SDS011;22678;52.052;4.242;2022-11-14T08:26:52;26.30;;;13.37;;
36691;SDS011;22678;52.052;4.242;2022-11-14T08:29:17;25.37;;;13.07;;
36691;SDS011;22678;52.052;4.242;2022-11-14T08:31:44;20.53;;;12.20;;
36691;SDS011;22678;52.052;4.242;2022-11-14T08:34:10;21.73;;;13.03;;
36691;SDS011;22678;52.052;4.242;2022-11-14T08:36:35;23.13;;;14.43;;
36691;SDS011;22678;52.052;4.242;2022-11-14T08:39:00;25.73;;;14.20;;
36691;SDS011;22678;52.052;4.242;2022-11-14T08:41:26;25.37;;;12.57;;
36691;SDS011;22678;52.052;4.242;2022-11-14T08:43:52;22.07;;;11.57;;
36691;SDS011;22678;52.052;4.242;2022-11-14T08:46:17;21.90;;;11.87;;
36691;SDS011;22678;52.052;4.242;2022-11-14T08:48:43;20.33;;;11.83;;
36691;SDS011;22678;52.052;4.242;2022-11-14T08:51:08;21.23;;;11.70;;
36691;SDS011;22678;52.052;4.242;2022-11-14T08:53:33;24.43;;;13.63;;
36691;SDS011;22678;52.052;4.242;2022-11-14T08:55:59;26.33;;;13.37;;
36691;SDS011;22678;52.052;4.242;2022-11-14T08:58:28;25.00;;;11.67;;
36691;SDS011;22678;52.052;4.242;2022-11-14T09:01:03;20.73;;;11.60;;
36691;SDS011;22678;52.052;4.242;2022-11-14T09:03:31;18.07;;;11.80;;
36691;SDS011;22678;52.052;4.242;2022-11-14T09:05:57;16.30;;;11.07;;
36691;SDS011;22678;52.052;4.242;2022-11-14T09:08:22;21.60;;;11.20;;
36691;SDS011;22678;52.052;4.242;2022-11-14T09:10:48;24.90;;;13.97;;
36691;SDS011;22678;52.052;4.242;2022-11-14T09:13:13;20.43;;;10.33;;
36691;SDS011;22678;52.052;4.242;2022-11-14T09:15:39;18.80;;;11.07;;
36691;SDS011;22678;52.052;4.242;2022-11-14T09:18:05;24.23;;;12.10;;
36691;SDS011;22678;52.052;4.242;2022-11-14T09:20:30;21.13;;;12.50;;
36691;SDS011;22678;52.052;4.242;2022-11-14T09:22:59;20.33;;;11.23;;
36691;SDS011;22678;52.052;4.242;2022-11-14T09:25:25;18.53;;;11.03;;
36691;SDS011;22678;52.052;4.242;2022-11-14T09:27:51;17.00;;;11.10;;
36691;SDS011;22678;52.052;4.242;2022-11-14T09:30:17;20.23;;;11.03;;
36691;SDS011;22678;52.052;4.242;2022-11-14T09:32:42;19.77;;;10.73;;
36691;SDS011;22678;52.052;4.242;2022-11-14T09:35:07;22.33;;;11.63;;
36691;SDS011;22678;52.052;4.242;2022-11-14T09:37:33;18.93;;;10.00;;
36691;SDS011;22678;52.052;4.242;2022-11-14T09:39:58;21.27;;;10.03;;
36691;SDS011;22678;52.052;4.242;2022-11-14T09:45:08;19.13;;;10.47;;
36691;SDS011;22678;52.052;4.242;2022-11-14T09:47:37;15.38;;;8.35;;
36691;SDS011;22678;52.052;4.242;2022-11-14T09:52:40;19.53;;;10.97;;
36691;SDS011;22678;52.052;4.242;2022-11-14T09:55:13;21.90;;;13.10;;
36691;SDS011;22678;52.052;4.242;2022-11-14T09:57:43;21.63;;;12.67;;
36691;SDS011;22678;52.052;4.242;2022-11-14T10:10:54;28.17;;;16.20;;
36691;SDS011;22678;52.052;4.242;2022-11-14T10:16:06;21.37;;;10.97;;
36691;SDS011;22678;52.052;4.242;2022-11-14T10:18:57;22.60;;;13.33;;
36691;SDS011;22678;52.052;4.242;2022-11-14T10:21:30;20.50;;;11.43;;
36691;SDS011;22678;52.052;4.242;2022-11-14T10:26:35;28.30;;;12.20;;
36691;SDS011;22678;52.052;4.242;2022-11-14T10:34:08;21.93;;;12.00;;
36691;SDS011;22678;52.052;4.242;2022-11-14T10:39:20;19.13;;;11.63;;
36691;SDS011;22678;52.052;4.242;2022-11-14T10:41:51;23.88;;;15.13;;
36691;SDS011;22678;52.052;4.242;2022-11-14T10:44:25;20.80;;;12.90;;
36691;SDS011;22678;52.052;4.242;2022-11-14T10:47:00;21.20;;;12.40;;
36691;SDS011;22678;52.052;4.242;2022-11-14T10:49:29;22.73;;;12.37;;
36691;SDS011;22678;52.052;4.242;2022-11-14T10:51:56;26.27;;;13.50;;
36691;SDS011;22678;52.052;4.242;2022-11-14T10:54:30;23.33;;;13.90;;
36691;SDS011;22678;52.052;4.242;2022-11-14T10:57:16;23.40;;;13.83;;
36691;SDS011;22678;52.052;4.242;2022-11-14T10:59:44;20.87;;;11.60;;
36691;SDS011;22678;52.052;4.242;2022-11-14T11:02:09;19.57;;;13.43;;
36691;SDS011;22678;52.052;4.242;2022-11-14T11:04:36;24.60;;;15.00;;
36691;SDS011;22678;52.052;4.242;2022-11-14T11:09:31;19.10;;;11.67;;
36691;SDS011;22678;52.052;4.242;2022-11-14T11:12:17;17.63;;;11.20;;
36691;SDS011;22678;52.052;4.242;2022-11-14T11:14:45;19.47;;;11.57;;
36691;SDS011;22678;52.052;4.242;2022-11-14T11:19:45;16.90;;;10.30;;
36691;SDS011;22678;52.052;4.242;2022-11-14T11:25:01;26.93;;;12.93;;
36691;SDS011;22678;52.052;4.242;2022-11-14T11:27:45;18.93;;;11.70;;
36691;SDS011;22678;52.052;4.242;2022-11-14T11:32:39;25.10;;;12.00;;
36691;SDS011;22678;52.052;4.242;2022-11-14T11:35:08;22.03;;;12.50;;
36691;SDS011;22678;52.052;4.242;2022-11-14T11:40:33;18.43;;;12.47;;
36691;SDS011;22678;52.052;4.242;2022-11-14T11:43:02;19.17;;;11.87;;
36691;SDS011;22678;52.052;4.242;2022-11-14T11:45:35;15.13;;;10.93;;
36691;SDS011;22678;52.052;4.242;2022-11-14T11:48:22;21.33;;;11.70;;
36691;SDS011;22678;52.052;4.242;2022-11-14T11:50:47;17.20;;;10.83;;
36691;SDS011;22678;52.052;4.242;2022-11-14T11:53:24;20.70;;;12.53;;
36691;SDS011;22678;52.052;4.242;2022-11-14T11:55:58;21.60;;;11.97;;
36691;SDS011;22678;52.052;4.242;2022-11-14T11:58:29;25.73;;;14.10;;
36691;SDS011;22678;52.052;4.242;2022-11-14T12:00:59;24.70;;;13.87;;
36691;SDS011;22678;52.052;4.242;2022-11-14T12:03:25;24.63;;;15.43;;
36691;SDS011;22678;52.052;4.242;2022-11-14T12:10:59;28.17;;;15.30;;
36691;SDS011;22678;52.052;4.242;2022-11-14T12:14:19;25.85;;;15.75;;
36691;SDS011;22678;52.052;4.242;2022-11-14T12:17:10;29.02;;;16.20;;
36691;SDS011;22678;52.052;4.242;2022-11-14T12:25:07;26.17;;;16.07;;
36691;SDS011;22678;52.052;4.242;2022-11-14T12:27:55;29.58;;;16.05;;
36691;SDS011;22678;52.052;4.242;2022-11-14T12:30:36;30.17;;;18.15;;
36691;SDS011;22678;52.052;4.242;2022-11-14T12:33:11;23.77;;;16.00;;
36691;SDS011;22678;52.052;4.242;2022-11-14T12:35:58;26.83;;;15.47;;
36691;SDS011;22678;52.052;4.242;2022-11-14T12:38:29;26.30;;;14.95;;
36691;SDS011;22678;52.052;4.242;2022-11-14T12:41:05;26.25;;;16.80;;
36691;SDS011;22678;52.052;4.242;2022-11-14T12:46:04;23.27;;;15.32;;
36691;SDS011;22678;52.052;4.242;2022-11-14T12:48:36;31.65;;;17.73;;
36691;SDS011;22678;52.052;4.242;2022-11-14T12:51:04;20.45;;;12.85;;
36691;SDS011;22678;52.052;4.242;2022-11-14T12:53:49;28.35;;;13.80;;
36691;SDS011;22678;52.052;4.242;2022-11-14T12:56:36;22.60;;;13.27;;
36691;SDS011;22678;52.052;4.242;2022-11-14T13:02:20;25.90;;;12.77;;
36691;SDS011;22678;52.052;4.242;2022-11-14T13:04:56;21.45;;;15.30;;
36691;SDS011;22678;52.052;4.242;2022-11-14T13:08:00;21.80;;;13.60;;
36691;SDS011;22678;52.052;4.242;2022-11-14T13:10:32;22.38;;;13.93;;
36691;SDS011;22678;52.052;4.242;2022-11-14T13:13:08;21.05;;;11.55;;
36691;SDS011;22678;52.052;4.242;2022-11-14T13:15:57;20.75;;;13.15;;
36691;SDS011;22678;52.052;4.242;2022-11-14T13:27:34;21.13;;;13.52;;
36691;SDS011;22678;52.052;4.242;2022-11-14T13:30:01;20.90;;;13.07;;
36691;SDS011;22678;52.052;4.242;2022-11-14T13:32:50;19.95;;;12.43;;
36691;SDS011;22678;52.052;4.242;2022-11-14T13:35:17;19.42;;;14.20;;
36691;SDS011;22678;52.052;4.242;2022-11-14T13:38:04;23.00;;;14.77;;
36691;SDS011;22678;52.052;4.242;2022-11-14T13:52:00;21.25;;;12.43;;
36691;SDS011;22678;52.052;4.242;2022-11-14T13:54:25;22.00;;;14.52;;
36691;SDS011;22678;52.052;4.242;2022-11-14T14:10:41;21.65;;;13.52;;
36691;SDS011;22678;52.052;4.242;2022-11-14T14:13:13;24.05;;;13.98;;
36691;SDS011;22678;52.052;4.242;2022-11-14T14:18:46;22.55;;;13.15;;
36691;SDS011;22678;52.052;4.242;2022-11-14T14:27:06;24.38;;;14.60;;
36691;SDS011;22678;52.052;4.242;2022-11-14T14:30:08;23.63;;;13.90;;
36691;SDS011;22678;52.052;4.242;2022-11-14T14:32:36;29.38;;;14.95;;
36691;SDS011;22678;52.052;4.242;2022-11-14T14:38:23;19.80;;;12.00;;
36691;SDS011;22678;52.052;4.242;2022-11-14T14:40:52;20.10;;;12.10;;
36691;SDS011;22678;52.052;4.242;2022-11-14T14:43:24;21.23;;;13.60;;
36691;SDS011;22678;52.052;4.242;2022-11-14T14:45:58;22.23;;;12.50;;
36691;SDS011;22678;52.052;4.242;2022-11-14T14:48:32;19.70;;;13.20;;
36691;SDS011;22678;52.052;4.242;2022-11-14T14:51:02;19.60;;;11.48;;
36691;SDS011;22678;52.052;4.242;2022-11-14T14:53:32;18.98;;;12.65;;
36691;SDS011;22678;52.052;4.242;2022-11-14T14:55:59;23.00;;;12.85;;
36691;SDS011;22678;52.052;4.242;2022-11-14T14:58:27;20.05;;;10.80;;
36691;SDS011;22678;52.052;4.242;2022-11-14T15:00:55;22.55;;;12.35;;
36691;SDS011;22678;52.052;4.242;2022-11-14T15:03:22;22.48;;;12.38;;
36691;SDS011;22678;52.052;4.242;2022-11-14T15:05:55;21.92;;;12.88;;
36691;SDS011;22678;52.052;4.242;2022-11-14T15:08:22;29.60;;;12.93;;
36691;SDS011;22678;52.052;4.242;2022-11-14T15:10:47;25.92;;;12.25;;
36691;SDS011;22678;52.052;4.242;2022-11-14T15:13:13;16.65;;;12.05;;
36691;SDS011;22678;52.052;4.242;2022-11-14T15:15:40;21.10;;;13.75;;
36691;SDS011;22678;52.052;4.242;2022-11-14T15:18:06;20.33;;;12.63;;
36691;SDS011;22678;52.052;4.242;2022-11-14T15:20:38;24.33;;;14.20;;
36691;SDS011;22678;52.052;4.242;2022-11-14T15:23:04;19.05;;;11.38;;
36691;SDS011;22678;52.052;4.242;2022-11-14T15:25:39;18.83;;;11.77;;
36691;SDS011;22678;52.052;4.242;2022-11-14T15:28:15;18.83;;;11.00;;
36691;SDS011;22678;52.052;4.242;2022-11-14T15:30:54;17.55;;;10.30;;
36691;SDS011;22678;52.052;4.242;2022-11-14T15:33:40;20.08;;;11.48;;
36691;SDS011;22678;52.052;4.242;2022-11-14T15:36:12;19.20;;;11.13;;
36691;SDS011;22678;52.052;4.242;2022-11-14T15:38:56;19.88;;;13.65;;
36691;SDS011;22678;52.052;4.242;2022-11-14T15:41:23;21.15;;;12.73;;
36691;SDS011;22678;52.052;4.242;2022-11-14T15:43:51;20.27;;;11.95;;
36691;SDS011;22678;52.052;4.242;2022-11-14T15:49:08;21.13;;;11.45;;
36691;SDS011;22678;52.052;4.242;2022-11-14T15:54:27;17.65;;;12.35;;
36691;SDS011;22678;52.052;4.242;2022-11-14T15:57:00;17.80;;;12.43;;
36691;SDS011;22678;52.052;4.242;2022-11-14T15:59:30;18.35;;;12.63;;
36691;SDS011;22678;52.052;4.242;2022-11-14T16:01:58;17.02;;;12.82;;
36691;SDS011;22678;52.052;4.242;2022-11-14T16:04:29;21.30;;;11.63;;
36691;SDS011;22678;52.052;4.242;2022-11-14T16:06:57;18.80;;;11.45;;
36691;SDS011;22678;52.052;4.242;2022-11-14T16:09:22;20.92;;;11.63;;
36691;SDS011;22678;52.052;4.242;2022-11-14T16:11:47;19.83;;;13.73;;
36691;SDS011;22678;52.052;4.242;2022-11-14T16:14:13;21.48;;;13.23;;
36691;SDS011;22678;52.052;4.242;2022-11-14T16:16:39;17.98;;;11.65;;
36691;SDS011;22678;52.052;4.242;2022-11-14T16:19:04;18.02;;;10.98;;
36691;SDS011;22678;52.052;4.242;2022-11-14T16:21:30;19.42;;;12.80;;
36691;SDS011;22678;52.052;4.242;2022-11-14T16:23:56;21.52;;;12.68;;